Time;durP1;ratioP1;P1;durP2;ratioP2;P2;SDS_P1;SDS_P2;PMS_P1;PMS_P2;Temp;Humidity;BMP_temperature;BMP_pressure;BME280_temperature;BME280_humidity;BME280_pressure;Samples;Min_cycle;Max_cycle;Signal;HPM_P1;HPM_P2
2022/09/26 00:01:56;;;;;;;38.53;23.52;;;;;;;14.77;59.36;99726.09;5049022;28;20048;-62
2022/09/26 00:04:27;;;;;;;38.75;23.80;;;;;;;14.77;59.42;99728.75;5042816;28;20433;-62
2022/09/26 00:06:54;;;;;;;38.30;22.27;;;;;;;14.83;59.38;99724.91;5044564;28;20047;-63
2022/09/26 00:09:21;;;;;;;40.45;23.13;;;;;;;14.87;59.17;99732.63;5045876;28;20061;-62
2022/09/26 00:11:47;;;;;;;38.38;23.60;;;;;;;14.89;59.27;99732.56;5044339;28;20041;-61
2022/09/26 00:14:16;;;;;;;39.80;22.70;;;;;;;14.91;59.13;99723.59;5037537;28;20095;-61
2022/09/26 00:16:41;;;;;;;38.00;22.52;;;;;;;14.93;59.10;99729.69;5044835;28;20402;-62
2022/09/26 00:19:07;;;;;;;35.05;22.48;;;;;;;14.96;59.03;99726.00;5048506;28;20510;-61
2022/09/26 00:21:34;;;;;;;33.40;22.00;;;;;;;14.96;58.98;99708.38;5045388;28;20039;-61
2022/09/26 00:24:00;;;;;;;28.95;19.92;;;;;;;14.92;59.10;99706.81;5049403;28;20037;-62
2022/09/26 00:26:27;;;;;;;35.47;21.45;;;;;;;14.95;58.88;99711.09;5049940;28;20049;-62
2022/09/26 00:28:53;;;;;;;45.50;27.83;;;;;;;14.95;59.03;99711.94;5055643;28;20041;-62
2022/09/26 00:31:22;;;;;;;39.88;25.35;;;;;;;14.90;59.26;99707.81;5055847;28;20043;-62
2022/09/26 00:33:47;;;;;;;38.60;25.23;;;;;;;14.91;59.18;99705.09;5050332;28;20511;-62
2022/09/26 00:36:13;;;;;;;37.38;24.90;;;;;;;14.94;59.02;99706.72;5047645;28;20124;-61
2022/09/26 00:38:39;;;;;;;34.38;23.75;;;;;;;15.01;58.76;99695.78;5056967;28;20097;-61
2022/09/26 00:41:05;;;;;;;34.47;23.17;;;;;;;15.22;58.19;99707.03;5051944;28;20472;-62
2022/09/26 00:43:48;;;;;;;33.35;22.92;;;;;;;15.26;58.30;99702.44;5053160;28;20084;-61
2022/09/26 00:46:29;;;;;;;33.90;22.75;;;;;;;15.04;59.00;99702.72;5042863;28;20079;-62
2022/09/26 00:49:20;;;;;;;33.38;22.25;;;;;;;14.94;59.12;99702.28;5052185;28;20032;-62
2022/09/26 00:51:56;;;;;;;30.80;20.92;;;;;;;15.16;58.50;99695.91;5052793;28;20037;-61
2022/09/26 00:54:23;;;;;;;28.55;19.63;;;;;;;14.98;59.06;99698.56;5048462;28;20484;-63
2022/09/26 00:56:54;;;;;;;30.38;22.23;;;;;;;15.22;58.41;99693.81;5047371;28;20076;-61
2022/09/26 00:59:22;;;;;;;26.10;19.35;;;;;;;15.34;58.11;99696.75;5044443;28;20029;-61
2022/09/26 01:01:50;;;;;;;29.25;20.45;;;;;;;15.34;58.03;99688.81;5042977;28;20029;-61
2022/09/26 01:04:16;;;;;;;32.10;21.42;;;;;;;15.35;58.06;99685.22;5046685;28;20041;-61
2022/09/26 01:06:43;;;;;;;28.98;20.08;;;;;;;15.28;58.12;99688.22;5045427;28;20079;-62
2022/09/26 01:09:11;;;;;;;29.65;20.85;;;;;;;15.20;58.30;99677.16;5051648;28;20067;-62
2022/09/26 01:11:38;;;;;;;30.63;21.35;;;;;;;15.21;58.35;99675.38;5055881;28;20370;-60
2022/09/26 01:14:08;;;;;;;38.63;25.45;;;;;;;14.94;59.01;99678.50;5058382;28;20032;-61
2022/09/26 01:16:35;;;;;;;45.67;29.23;;;;;;;14.87;59.14;99669.16;5047741;28;20029;-63
2022/09/26 01:19:04;;;;;;;41.83;27.13;;;;;;;14.84;59.26;99668.44;5046077;28;20037;-61
2022/09/26 01:21:55;;;;;;;39.13;26.83;;;;;;;14.89;59.16;99667.31;5050662;28;20041;-61
2022/09/26 01:24:52;;;;;;;39.55;25.30;;;;;;;14.92;58.97;99664.50;5057690;28;20024;-62
2022/09/26 01:27:34;;;;;;;34.55;23.27;;;;;;;14.89;58.87;99669.09;5028800;28;20076;-60
2022/09/26 01:30:17;;;;;;;41.33;26.92;;;;;;;14.94;59.04;99672.34;5043916;28;20025;-62
2022/09/26 01:33:07;;;;;;;35.65;23.27;;;;;;;14.97;58.96;99661.63;5047948;28;20030;-60
2022/09/26 01:35:38;;;;;;;37.95;26.15;;;;;;;14.99;58.83;99663.22;5049472;28;20025;-60
2022/09/26 01:38:23;;;;;;;36.67;24.25;;;;;;;14.88;59.18;99662.94;5056965;28;20411;-62
2022/09/26 01:41:07;;;;;;;32.45;22.60;;;;;;;15.08;58.80;99656.63;5052703;28;20036;-62
2022/09/26 01:43:55;;;;;;;30.40;22.30;;;;;;;15.09;58.65;99644.25;5053787;28;20523;-61
2022/09/26 01:46:35;;;;;;;30.60;21.85;;;;;;;15.12;58.74;99642.31;5051655;28;20048;-60
2022/09/26 01:49:18;;;;;;;28.52;20.88;;;;;;;15.07;58.79;99640.81;5049337;28;20433;-62
2022/09/26 01:52:12;;;;;;;27.65;19.00;;;;;;;15.06;59.07;99641.78;5049091;28;20456;-61
2022/09/26 01:54:45;;;;;;;26.13;18.45;;;;;;;15.12;58.70;99642.31;5048775;28;20032;-61
2022/09/26 01:57:19;;;;;;;;;;;;;;;15.05;59.32;99640.91;5043445;28;20029;-61
2022/09/26 01:59:50;;;;;;;23.90;17.40;;;;;;;15.07;58.74;99635.53;5061222;28;19924;-60
2022/09/26 02:02:26;;;;;;;27.38;19.73;;;;;;;15.17;58.45;99637.63;5042469;28;20030;-60
2022/09/26 02:04:58;;;;;;;27.98;19.50;;;;;;;15.20;58.39;99626.91;5040935;28;20036;-61
2022/09/26 02:07:37;;;;;;;27.95;19.67;;;;;;;15.17;58.43;99627.03;5047011;28;20028;-61
2022/09/26 02:10:10;;;;;;;26.35;20.15;;;;;;;15.18;58.50;99628.75;5047717;28;20048;-61
2022/09/26 02:12:38;;;;;;;;;;;;;;;15.47;58.27;99637.78;5050465;28;20486;-60
2022/09/26 02:15:11;;;;;;;23.35;15.98;;;;;;;15.35;57.87;99630.50;5054824;28;19920;-60
2022/09/26 02:17:41;;;;;;;24.95;17.95;;;;;;;15.26;58.10;99631.84;5045093;28;20132;-61
2022/09/26 02:20:14;;;;;;;28.40;19.95;;;;;;;15.19;58.39;99624.31;5052778;28;20045;-61
2022/09/26 02:22:40;;;;;;;32.33;21.27;;;;;;;15.16;58.58;99629.75;5069233;28;20055;-62
2022/09/26 02:25:07;;;;;;;28.13;19.92;;;;;;;15.03;58.90;99621.59;5063565;28;20112;-59
2022/09/26 02:27:33;;;;;;;30.45;20.48;;;;;;;14.97;59.20;99628.09;5056507;28;20087;-60
2022/09/26 02:29:59;;;;;;;28.60;21.35;;;;;;;14.95;59.24;99621.16;5051244;28;20040;-61
2022/09/26 02:32:28;;;;;;;32.40;21.42;;;;;;;14.86;59.39;99622.47;5058101;28;20037;-60
2022/09/26 02:34:55;;;;;;;29.02;19.55;;;;;;;14.76;59.67;99626.50;5047161;28;20035;-61
2022/09/26 02:37:21;;;;;;;26.80;19.00;;;;;;;14.74;59.77;99617.81;5056540;28;20064;-61
2022/09/26 02:39:49;;;;;;;25.88;19.30;;;;;;;14.84;59.48;99619.06;5056043;28;20032;-61
2022/09/26 02:42:35;;;;;;;29.48;18.17;;;;;;;14.81;59.84;99619.22;5062474;28;20154;-60
2022/09/26 02:45:09;;;;;;;26.67;19.27;;;;;;;14.86;59.51;99613.69;5062648;28;20039;-61
2022/09/26 02:47:47;;;;;;;24.42;18.73;;;;;;;14.60;60.15;99607.97;5052484;28;20135;-60
2022/09/26 02:50:54;;;;;;;26.40;18.67;;;;;;;14.56;60.73;99608.16;5055330;28;20451;-60
2022/09/26 02:53:22;;;;;;;23.25;18.33;;;;;;;14.51;60.50;99611.91;4963408;28;20056;-62
2022/09/26 02:56:13;;;;;;;27.95;18.67;;;;;;;14.47;60.83;99602.38;5038939;28;20126;-62
2022/09/26 02:58:58;;;;;;;30.75;22.40;;;;;;;14.67;60.61;99600.56;5057235;28;20032;-61
2022/09/26 03:01:33;;;;;;;25.67;19.40;;;;;;;14.71;60.15;99610.03;5054470;28;20170;-62
2022/09/26 03:04:19;;;;;;;30.17;20.40;;;;;;;14.72;60.16;99599.41;5046529;28;20102;-61
2022/09/26 03:06:50;;;;;;;32.55;22.88;;;;;;;14.73;60.13;99594.97;5058676;28;20751;-61
2022/09/26 03:09:17;;;;;;;27.30;20.55;;;;;;;14.76;60.26;99594.78;5053108;28;20052;-61
2022/09/26 03:11:44;;;;;;;27.50;20.10;;;;;;;14.84;60.06;99590.00;5050240;28;20032;-61
2022/09/26 03:14:11;;;;;;;29.08;20.00;;;;;;;14.93;59.73;99592.16;5052342;28;20028;-61
2022/09/26 03:16:39;;;;;;;32.17;20.63;;;;;;;15.00;59.64;99587.38;5060511;28;20124;-61
2022/09/26 03:19:18;;;;;;;30.13;20.75;;;;;;;15.11;59.58;99589.47;5053147;28;20021;-62
2022/09/26 03:21:44;;;;;;;28.75;19.45;;;;;;;15.23;59.07;99584.38;5054678;28;20492;-62
2022/09/26 03:24:12;;;;;;;29.65;21.52;;;;;;;15.23;59.12;99579.06;5054704;28;20029;-62
2022/09/26 03:26:38;;;;;;;29.42;21.15;;;;;;;15.22;59.24;99566.78;5059822;28;20033;-61
2022/09/26 03:29:04;;;;;;;25.98;18.55;;;;;;;15.28;58.91;99562.97;5051868;28;20392;-63
2022/09/26 03:31:30;;;;;;;25.23;18.95;;;;;;;15.30;58.81;99558.44;5063998;28;20028;-62
2022/09/26 03:33:55;;;;;;;26.83;20.02;;;;;;;15.29;59.04;99559.38;5054592;28;20037;-62
2022/09/26 03:36:22;;;;;;;24.85;17.35;;;;;;;15.29;59.04;99564.69;5051270;28;20037;-63
2022/09/26 03:38:47;;;;;;;24.50;19.00;;;;;;;15.30;59.03;99565.53;5052485;28;20060;-62
2022/09/26 03:41:13;;;;;;;25.67;19.15;;;;;;;15.28;59.11;99560.34;5059731;28;20033;-61
2022/09/26 03:43:42;;;;;;;28.77;19.40;;;;;;;15.26;59.15;99552.47;5052818;28;20048;-62
2022/09/26 03:46:08;;;;;;;36.17;23.13;;;;;;;15.26;59.17;99541.88;5049190;28;20381;-61
2022/09/26 03:48:33;;;;;;;33.38;22.88;;;;;;;15.25;59.13;99541.97;5052045;28;20072;-61
2022/09/26 03:51:08;;;;;;;32.67;21.02;;;;;;;15.18;59.40;99535.28;5054916;28;20034;-62
2022/09/26 03:53:36;;;;;;;30.30;21.45;;;;;;;15.18;59.28;99541.44;5054117;28;20090;-62
2022/09/26 03:56:11;;;;;;;27.58;19.40;;;;;;;15.18;59.44;99532.63;5047233;28;20037;-61
2022/09/26 03:58:37;;;;;;;25.55;19.25;;;;;;;15.20;59.34;99543.97;5048179;28;20047;-62
2022/09/26 04:01:12;;;;;;;23.55;18.25;;;;;;;15.22;59.32;99536.81;5057962;28;20119;-62
2022/09/26 04:03:40;;;;;;;25.05;19.10;;;;;;;15.22;59.30;99542.13;5050217;28;20075;-62
2022/09/26 04:06:10;;;;;;;24.88;20.27;;;;;;;15.27;59.20;99538.28;5046211;28;20487;-61
2022/09/26 04:08:36;;;;;;;27.77;20.33;;;;;;;15.29;59.11;99538.22;5052931;28;20060;-59
2022/09/26 04:11:04;;;;;;;28.60;21.40;;;;;;;15.27;59.30;99540.91;5045119;28;20036;-61
2022/09/26 04:13:30;;;;;;;26.05;19.02;;;;;;;15.29;59.19;99546.16;5043803;28;20033;-62
2022/09/26 04:15:57;;;;;;;25.58;18.27;;;;;;;15.34;59.17;99544.09;5049897;28;20025;-61
2022/09/26 04:18:22;;;;;;;25.90;19.52;;;;;;;15.36;59.07;99542.25;5058717;28;20082;-61
2022/09/26 04:20:48;;;;;;;25.13;19.83;;;;;;;15.40;58.97;99533.19;5058612;28;20032;-61
2022/09/26 04:23:13;;;;;;;27.60;20.05;;;;;;;15.42;58.96;99525.16;5050399;28;20116;-60
2022/09/26 04:25:39;;;;;;;24.70;19.33;;;;;;;15.43;59.02;99535.66;5043085;28;20037;-61
2022/09/26 04:28:04;;;;;;;24.23;18.67;;;;;;;15.46;58.95;99527.53;5055151;28;20033;-60
2022/09/26 04:30:29;;;;;;;26.10;19.58;;;;;;;15.47;58.89;99534.53;5049753;28;20037;-61
2022/09/26 04:32:55;;;;;;;24.67;18.42;;;;;;;15.48;58.96;99538.06;5045674;28;20440;-61
2022/09/26 04:35:20;;;;;;;23.40;17.80;;;;;;;15.45;59.08;99533.78;5044297;28;20060;-61
2022/09/26 04:37:46;;;;;;;26.13;19.75;;;;;;;15.46;59.08;99532.84;5048379;28;20045;-62
2022/09/26 04:40:12;;;;;;;25.40;19.60;;;;;;;15.50;58.89;99539.69;5054876;28;20147;-63
2022/09/26 04:42:37;;;;;;;25.35;19.50;;;;;;;15.55;58.95;99533.28;5048344;28;20053;-62
2022/09/26 04:45:03;;;;;;;24.45;18.23;;;;;;;15.50;59.05;99539.69;5053390;28;20033;-62
2022/09/26 04:47:29;;;;;;;21.90;17.67;;;;;;;15.55;58.86;99536.75;5060459;28;20036;-61
2022/09/26 04:49:54;;;;;;;29.00;21.50;;;;;;;15.56;59.01;99532.31;5048159;28;20424;-60
2022/09/26 04:52:20;;;;;;;26.95;20.92;;;;;;;15.57;58.88;99534.91;5052359;28;20045;-62
2022/09/26 04:54:45;;;;;;;28.02;20.77;;;;;;;15.55;58.96;99534.13;5056693;28;20037;-62
2022/09/26 04:57:13;;;;;;;25.63;19.10;;;;;;;15.48;59.22;99530.97;5056745;28;20032;-60
2022/09/26 04:59:39;;;;;;;28.38;19.60;;;;;;;15.50;59.28;99533.53;5057395;28;20465;-61
2022/09/26 05:02:07;;;;;;;29.95;22.77;;;;;;;15.52;59.26;99521.94;5047255;28;20033;-62
2022/09/26 05:04:32;;;;;;;25.88;20.25;;;;;;;15.56;59.08;99524.38;5047655;28;20475;-59
2022/09/26 05:06:58;;;;;;;27.02;20.33;;;;;;;15.59;59.00;99526.88;5060022;28;20041;-61
2022/09/26 05:09:24;;;;;;;37.67;24.63;;;;;;;15.61;58.84;99520.56;5054927;28;20040;-60
2022/09/26 05:11:50;;;;;;;51.50;31.17;;;;;;;15.57;59.00;99519.03;5054429;28;20045;-60
2022/09/26 05:14:15;;;;;;;59.92;34.10;;;;;;;15.61;58.74;99523.19;5056521;28;20033;-62
2022/09/26 05:16:40;;;;;;;75.57;40.67;;;;;;;15.64;58.77;99520.38;5036843;28;20052;-61
2022/09/26 05:19:07;;;;;;;78.50;41.67;;;;;;;15.66;58.63;99522.97;5049477;28;20043;-60
2022/09/26 05:21:33;;;;;;;66.38;39.35;;;;;;;15.69;58.75;99518.34;5060726;28;20110;-61
2022/09/26 05:26:49;;;;;;;50.08;29.52;;;;;;;15.72;58.69;99512.06;5052493;28;20044;-60
2022/09/26 05:29:16;;;;;;;41.38;26.08;;;;;;;15.73;58.57;99509.31;5059585;28;20025;-61
2022/09/26 05:31:42;;;;;;;34.70;23.20;;;;;;;15.80;58.52;99515.13;5057700;28;20048;-61
2022/09/26 05:34:09;;;;;;;30.25;21.08;;;;;;;15.87;58.40;99515.59;5055821;28;20026;-60
2022/09/26 05:36:35;;;;;;;31.17;21.77;;;;;;;15.94;58.11;99507.22;5055257;28;20420;-62
2022/09/26 05:39:01;;;;;;;29.98;19.83;;;;;;;16.01;57.92;99513.88;5067740;28;20040;-61
2022/09/26 05:41:31;;;;;;;25.88;17.77;;;;;;;15.99;57.48;99499.00;5076140;28;20044;-61
2022/09/26 05:43:57;;;;;;;21.98;16.45;;;;;;;16.05;57.52;99503.09;5074819;28;20063;-60
2022/09/26 05:46:23;;;;;;;22.88;18.02;;;;;;;16.13;57.12;99508.81;5076155;28;20411;-61
2022/09/26 05:48:49;;;;;;;24.58;18.33;;;;;;;16.19;57.01;99514.59;5076200;28;20066;-62
2022/09/26 05:51:16;;;;;;;23.45;18.70;;;;;;;16.22;56.98;99508.25;5068668;28;20499;-62
2022/09/26 05:53:44;;;;;;;21.02;16.33;;;;;;;16.29;56.80;99506.13;5055634;28;20071;-62
2022/09/26 05:56:11;;;;;;;20.98;16.30;;;;;;;16.33;56.55;99503.19;5056035;28;20482;-61
2022/09/26 05:58:38;;;;;;;23.95;17.67;;;;;;;16.42;56.36;99504.44;5056177;28;20422;-61
2022/09/26 06:01:06;;;;;;;23.83;17.48;;;;;;;16.46;56.07;99501.50;5056107;28;20039;-62
2022/09/26 06:03:33;;;;;;;23.10;18.25;;;;;;;16.47;56.04;99492.59;5054758;28;20033;-61
2022/09/26 06:06:07;;;;;;;25.58;18.35;;;;;;;16.51;55.54;99494.13;5055830;28;20068;-63
2022/09/26 06:08:34;;;;;;;21.98;17.52;;;;;;;16.62;55.39;99497.94;5056155;28;20508;-61
2022/09/26 06:11:05;;;;;;;25.25;17.25;;;;;;;16.63;55.40;99486.38;5055886;28;20064;-62
2022/09/26 06:13:32;;;;;;;22.45;17.13;;;;;;;16.66;55.45;99488.84;5055833;28;20037;-61
2022/09/26 06:16:05;;;;;;;24.95;17.50;;;;;;;16.71;55.27;99489.41;5055718;28;20112;-61
2022/09/26 06:18:34;;;;;;;23.10;18.08;;;;;;;16.82;55.03;99494.09;5055481;28;20494;-62
2022/09/26 06:21:04;;;;;;;27.88;19.13;;;;;;;16.92;54.84;99496.09;5055485;28;20060;-61
2022/09/26 06:23:31;;;;;;;28.45;20.23;;;;;;;16.95;54.64;99498.56;5055646;28;20025;-61
2022/09/26 06:25:57;;;;;;;86.10;60.47;;;;;;;17.04;54.55;99494.50;5049731;28;20116;-62
2022/09/26 06:28:27;;;;;;;60.88;46.25;;;;;;;17.05;54.52;99495.34;5046064;28;20075;-61
2022/09/26 06:30:53;;;;;;;32.10;24.00;;;;;;;17.15;54.35;99493.81;5063690;28;20113;-62
2022/09/26 06:33:19;;;;;;;25.83;20.20;;;;;;;17.38;53.53;99489.72;5048172;28;20396;-61
2022/09/26 06:35:45;;;;;;;34.80;24.83;;;;;;;17.45;53.56;99486.56;5075287;28;20032;-61
2022/09/26 06:38:10;;;;;;;27.85;20.90;;;;;;;17.48;52.95;99483.72;5064719;28;20123;-62
2022/09/26 06:40:36;;;;;;;26.33;19.40;;;;;;;17.51;53.03;99487.13;5075208;28;20052;-63
2022/09/26 06:43:02;;;;;;;26.23;18.73;;;;;;;17.55;52.87;99489.47;5075333;28;20083;-62
2022/09/26 06:45:28;;;;;;;23.00;19.17;;;;;;;17.58;52.80;99480.47;5075026;28;20036;-62
2022/09/26 06:47:54;;;;;;;22.35;18.27;;;;;;;17.54;52.89;99479.81;5072083;28;20029;-62
2022/09/26 06:50:21;;;;;;;24.00;18.95;;;;;;;17.53;52.93;99479.91;5055264;28;20033;-62
2022/09/26 06:52:46;;;;;;;24.40;17.92;;;;;;;17.56;52.81;99485.03;5055096;28;20037;-62
2022/09/26 06:55:13;;;;;;;25.17;19.70;;;;;;;17.59;52.79;99482.16;5057681;28;20105;-62
2022/09/26 06:57:41;;;;;;;25.13;18.27;;;;;;;17.66;52.56;99475.50;5054740;28;20037;-62
2022/09/26 07:00:08;;;;;;;25.60;18.65;;;;;;;17.58;52.76;99477.81;5054572;28;20473;-62
2022/09/26 07:02:34;;;;;;;21.92;16.65;;;;;;;17.56;52.93;99480.56;5054408;28;20397;-62
2022/09/26 07:05:01;;;;;;;24.63;18.02;;;;;;;17.54;52.84;99486.91;5052843;28;20041;-62
2022/09/26 07:07:28;;;;;;;22.75;18.40;;;;;;;17.70;52.81;99482.31;5054732;28;20037;-61
2022/09/26 07:09:55;;;;;;;30.65;21.75;;;;;;;17.75;52.74;99480.22;5054658;28;20377;-62
2022/09/26 07:12:21;;;;;;;21.77;17.63;;;;;;;17.82;52.83;99478.88;5054718;28;20070;-62
2022/09/26 07:14:46;;;;;;;23.42;17.60;;;;;;;17.79;53.34;99481.75;5054475;28;20072;-62
2022/09/26 07:17:14;;;;;;;21.75;17.40;;;;;;;17.84;53.37;99481.47;5054326;28;20065;-61
2022/09/26 07:19:40;;;;;;;23.00;16.90;;;;;;;17.87;53.36;99490.09;5054572;28;20108;-61
2022/09/26 07:22:06;;;;;;;25.48;20.60;;;;;;;17.87;53.47;99491.88;5053177;28;20128;-62
2022/09/26 07:24:32;;;;;;;25.92;17.65;;;;;;;17.75;53.87;99496.19;5054417;28;20037;-62
2022/09/26 07:26:57;;;;;;;37.50;31.58;;;;;;;17.65;54.01;99501.22;5054143;28;20091;-61
2022/09/26 07:29:23;;;;;;;29.20;23.70;;;;;;;17.63;54.05;99507.56;5054093;28;20469;-63
2022/09/26 07:31:48;;;;;;;27.05;20.08;;;;;;;17.46;54.33;99509.50;5054788;28;20037;-62
2022/09/26 07:34:13;;;;;;;23.17;18.70;;;;;;;17.44;54.57;99503.47;5055160;28;20032;-61
2022/09/26 07:36:39;;;;;;;25.95;21.05;;;;;;;17.53;54.61;99511.78;5054582;28;20461;-62
2022/09/26 07:39:05;;;;;;;24.98;20.77;;;;;;;17.34;54.95;99501.47;5054290;28;20037;-61
2022/09/26 07:41:30;;;;;;;22.30;17.33;;;;;;;17.34;54.97;99509.44;5054255;28;20122;-61
2022/09/26 07:43:56;;;;;;;22.10;18.50;;;;;;;17.51;54.82;99503.91;5054026;28;20056;-62
2022/09/26 07:51:54;;;;;;;24.15;18.27;;;;;;;18.06;53.89;99495.00;5052766;28;20059;-61
2022/09/26 07:54:19;;;;;;;27.35;23.25;;;;;;;18.12;53.74;99497.28;5053528;28;20082;-61
2022/09/26 07:56:45;;;;;;;22.45;18.50;;;;;;;18.20;53.64;99494.97;5052530;28;20041;-61
2022/09/26 07:59:11;;;;;;;42.30;36.05;;;;;;;18.46;53.17;99495.00;5053649;28;20384;-61
2022/09/26 08:01:36;;;;;;;23.83;19.13;;;;;;;18.50;53.30;99498.28;5054026;28;20089;-62
2022/09/26 08:04:02;;;;;;;22.65;17.20;;;;;;;18.48;53.36;99506.41;5051279;28;20056;-61
2022/09/26 08:06:31;;;;;;;20.15;16.20;;;;;;;18.61;53.11;99496.59;5052486;28;20427;-61
2022/09/26 08:08:57;;;;;;;22.10;16.20;;;;;;;18.82;52.73;99499.63;5052403;28;20028;-61
2022/09/26 08:11:23;;;;;;;18.88;15.55;;;;;;;18.91;52.51;99498.13;5052636;28;20039;-60
2022/09/26 08:13:49;;;;;;;21.23;14.70;;;;;;;19.01;52.20;99493.03;5052568;28;20496;-61
2022/09/26 08:16:19;;;;;;;21.88;17.58;;;;;;;18.87;52.54;99486.88;5051863;28;20064;-61
2022/09/26 08:18:45;;;;;;;19.75;16.88;;;;;;;18.91;52.60;99495.47;5052641;28;20469;-61
2022/09/26 08:21:11;;;;;;;18.23;15.00;;;;;;;18.82;52.96;99488.97;5048633;28;20136;-61
2022/09/26 08:23:37;;;;;;;19.20;16.08;;;;;;;18.80;53.01;99498.03;5051452;28;20119;-61
2022/09/26 08:26:06;;;;;;;21.35;16.92;;;;;;;18.85;53.22;99494.09;5053395;28;20068;-61
2022/09/26 08:28:33;;;;;;;18.42;14.88;;;;;;;18.88;53.19;99488.56;5053322;28;20075;-62
2022/09/26 08:30:59;;;;;;;19.67;15.52;;;;;;;18.95;53.01;99486.34;5053500;28;20036;-62
2022/09/26 08:33:25;;;;;;;20.10;15.77;;;;;;;19.18;52.63;99485.53;5053343;28;20076;-62
2022/09/26 08:35:51;;;;;;;18.48;15.25;;;;;;;19.24;52.65;99488.72;5053031;28;20085;-61
2022/09/26 08:38:16;;;;;;;20.20;15.65;;;;;;;18.72;54.18;99493.25;5053143;28;20365;-62
2022/09/26 08:41:20;;;;;;;20.48;15.75;;;;;;;18.58;54.91;99496.81;5053263;28;20452;-61
2022/09/26 08:43:52;;;;;;;22.58;17.17;;;;;;;18.71;54.26;99507.50;5052934;28;20056;-63
2022/09/26 08:47:05;;;;;;;39.53;29.55;;;;;;;18.76;54.75;99497.41;5053026;28;20032;-63
2022/09/26 08:49:52;;;;;;;48.80;41.80;;;;;;;18.93;53.95;99491.75;5053957;28;20055;-62
2022/09/26 08:52:23;;;;;;;27.50;21.60;;;;;;;18.92;53.89;99490.03;5064011;28;20045;-62
2022/09/26 08:54:52;;;;;;;87.55;71.22;;;;;;;19.04;53.90;99491.00;5057787;28;20111;-62
2022/09/26 08:57:27;;;;;;;30.27;22.95;;;;;;;19.04;54.39;99490.16;5061096;28;20028;-61
2022/09/26 08:59:53;;;;;;;27.00;19.40;;;;;;;19.23;53.68;99487.00;5069606;28;20050;-62
2022/09/26 09:02:22;;;;;;;20.27;17.48;;;;;;;19.44;53.38;99485.47;5036038;28;20040;-59
2022/09/26 09:05:16;;;;;;;21.70;18.00;;;;;;;19.47;53.85;99487.06;5051134;28;20072;-62
2022/09/26 09:07:42;;;;;;;18.65;15.43;;;;;;;19.63;53.23;99496.53;5053631;28;20029;-62
2022/09/26 09:10:16;;;;;;;19.00;15.00;;;;;;;19.63;53.54;99491.22;5052872;28;20419;-62
2022/09/26 09:13:06;;;;;;;18.23;14.75;;;;;;;19.54;53.67;99490.97;5062457;28;20033;-62
2022/09/26 09:16:03;;;;;;;17.05;14.50;;;;;;;19.72;53.18;99489.69;5066506;28;20106;-62
2022/09/26 09:18:46;;;;;;;17.85;15.07;;;;;;;19.99;52.75;99484.13;5063868;28;20021;-61
2022/09/26 09:21:23;;;;;;;;;;;;;;;20.18;52.31;99491.56;5073701;28;20036;-61
2022/09/26 09:24:15;;;;;;;18.48;13.48;;;;;;;20.23;51.37;99494.75;5072260;28;19919;-60
2022/09/26 09:26:43;;;;;;;17.00;12.88;;;;;;;20.10;51.97;99489.47;5072010;28;20037;-62
2022/09/26 09:29:27;;;;;;;20.52;15.13;;;;;;;20.00;52.73;99492.97;5054984;28;20540;-61
2022/09/26 09:31:55;;;;;;;18.02;14.70;;;;;;;20.08;52.37;99485.25;5066847;28;20507;-62
2022/09/26 09:34:32;;;;;;;21.85;16.83;;;;;;;20.19;52.11;99487.97;5058479;28;20056;-62
2022/09/26 09:37:03;;;;;;;19.00;14.65;;;;;;;20.30;51.83;99492.47;5061162;28;20067;-62
2022/09/26 09:39:36;;;;;;;20.67;16.08;;;;;;;20.33;51.96;99487.75;5070050;28;20029;-62
2022/09/26 09:42:15;;;;;;;20.08;17.52;;;;;;;20.16;52.09;99489.03;5058289;28;20036;-62
2022/09/26 09:44:49;;;;;;;24.77;17.50;;;;;;;20.15;52.05;99494.50;5071770;28;20028;-62
2022/09/26 09:47:17;;;;;;;18.73;14.52;;;;;;;20.41;51.75;99493.34;5069574;28;20048;-61
2022/09/26 09:49:45;;;;;;;20.95;16.02;;;;;;;20.52;51.17;99505.06;5071557;28;20037;-60
2022/09/26 09:52:23;;;;;;;20.23;15.60;;;;;;;20.50;50.69;99490.97;5069784;28;20041;-62
2022/09/26 09:55:14;;;;;;;18.80;15.20;;;;;;;20.51;51.50;99496.22;5056091;28;20029;-61
2022/09/26 09:57:59;;;;;;;19.13;15.05;;;;;;;20.71;50.78;99493.81;5071485;28;20395;-62
2022/09/26 10:00:26;;;;;;;17.42;12.70;;;;;;;20.89;50.71;99487.88;5070776;28;20406;-60
2022/09/26 10:03:30;;;;;;;17.75;14.20;;;;;;;21.12;50.46;99487.91;5072671;28;20064;-61
2022/09/26 10:05:59;;;;;;;19.63;14.25;;;;;;;21.32;49.92;99478.28;5072426;28;20117;-62
2022/09/26 10:08:31;;;;;;;18.92;14.02;;;;;;;21.24;49.92;99481.56;5070598;28;20060;-62
2022/09/26 10:11:11;;;;;;;16.33;12.93;;;;;;;21.50;49.42;99484.84;5072439;28;20537;-62
2022/09/26 10:13:41;;;;;;;22.13;16.83;;;;;;;21.47;48.89;99477.09;5070271;28;20036;-62
2022/09/26 10:16:13;;;;;;;19.85;14.93;;;;;;;21.92;48.59;99473.44;5071751;28;20396;-61
2022/09/26 10:18:59;;;;;;;16.65;12.82;;;;;;;22.37;47.68;99482.13;5070846;28;20151;-62
2022/09/26 10:21:35;;;;;;;16.30;13.70;;;;;;;22.74;46.05;99479.84;5070533;28;20123;-63
2022/09/26 10:24:05;;;;;;;15.52;11.65;;;;;;;22.99;46.48;99483.09;5072023;28;20118;-62
2022/09/26 10:26:38;;;;;;;10.85;9.20;;;;;;;23.34;46.08;99478.16;5069588;28;20124;-58
2022/09/26 10:29:20;;;;;;;;;;;;;;;23.34;44.76;99482.66;5053078;28;20095;-63
2022/09/26 10:31:54;;;;;;;12.45;9.63;;;;;;;23.30;46.02;99479.41;5057180;28;19920;-60
2022/09/26 10:34:31;;;;;;;11.90;10.05;;;;;;;23.26;45.37;99478.00;5057891;28;20120;-62
2022/09/26 10:37:17;;;;;;;11.35;9.57;;;;;;;23.44;45.68;99482.69;5050559;28;20541;-61
2022/09/26 10:42:36;;;;;;;14.45;11.07;;;;;;;24.11;44.26;99473.91;5068875;28;20208;-62
2022/09/26 10:45:16;;;;;;;11.98;9.32;;;;;;;24.16;44.03;99478.84;5060945;28;20041;-62
2022/09/26 10:47:45;;;;;;;13.20;9.90;;;;;;;24.22;44.20;99473.78;5039990;28;20037;-61
2022/09/26 10:50:20;;;;;;;10.45;8.75;;;;;;;24.20;44.36;99478.41;5053864;28;20377;-62
2022/09/26 10:52:51;;;;;;;11.70;9.02;;;;;;;24.24;44.08;99477.16;5049984;28;20112;-63
2022/09/26 10:55:18;;;;;;;12.38;10.02;;;;;;;24.18;44.01;99476.88;5058000;28;20033;-60
2022/09/26 10:57:48;;;;;;;11.90;9.35;;;;;;;24.12;44.04;99472.06;5064607;28;20059;-61
2022/09/26 11:00:32;;;;;;;9.55;8.32;;;;;;;23.96;43.75;99478.00;5066819;28;20594;-61
2022/09/26 11:02:58;;;;;;;12.05;7.93;;;;;;;23.83;43.77;99476.44;5050864;28;20078;-62
2022/09/26 11:08:09;;;;;;;9.73;7.25;;;;;;;23.67;44.15;99478.81;5062754;28;20043;-60
2022/09/26 11:10:40;;;;;;;8.98;7.10;;;;;;;23.66;43.77;99471.78;5068273;28;20111;-61
2022/09/26 11:13:17;;;;;;;8.73;6.55;;;;;;;23.57;41.84;99476.06;5065422;28;20506;-61
2022/09/26 11:16:09;;;;;;;7.60;6.05;;;;;;;23.76;42.35;99467.25;5074598;28;20060;-61
2022/09/26 11:18:49;;;;;;;7.23;6.27;;;;;;;23.94;41.69;99463.88;5074614;28;20032;-62
2022/09/26 11:21:23;;;;;;;9.27;7.20;;;;;;;23.79;41.85;99464.28;5067114;28;20250;-62
2022/09/26 11:24:22;;;;;;;9.48;7.05;;;;;;;23.53;40.87;99455.88;5053571;28;20061;-62
2022/09/26 11:27:09;;;;;;;9.30;7.10;;;;;;;23.25;42.54;99457.50;5048600;28;20063;-62
2022/09/26 11:29:55;;;;;;;8.57;6.93;;;;;;;23.56;41.30;99457.47;5053738;28;20032;-61
2022/09/26 11:32:28;;;;;;;8.80;6.75;;;;;;;23.59;41.20;99454.50;5054193;28;20448;-62
2022/09/26 11:35:00;;;;;;;9.25;6.78;;;;;;;23.74;41.92;99453.16;5054353;28;20056;-62
2022/09/26 11:37:30;;;;;;;9.63;6.75;;;;;;;23.56;41.54;99460.13;5054181;28;20094;-62
2022/09/26 11:40:20;;;;;;;7.70;5.82;;;;;;;23.56;40.71;99452.94;5054229;28;20089;-62
2022/09/26 11:43:33;;;;;;;9.20;5.35;;;;;;;23.32;38.92;99447.09;5053909;28;20048;-63
2022/09/26 11:46:14;;;;;;;4.97;3.78;;;;;;;23.06;37.05;99452.09;5007906;28;20041;-61
2022/09/26 11:49:17;;;;;;;6.43;4.07;;;;;;;23.41;38.12;99448.94;5053086;28;20393;-62
2022/09/26 11:52:06;;;;;;;4.95;3.92;;;;;;;23.45;37.87;99444.16;5050876;28;20029;-62
2022/09/26 11:54:34;;;;;;;8.02;4.68;;;;;;;23.44;39.78;99447.84;5053138;28;20492;-62